Time;durP1;ratioP1;P1;durP2;ratioP2;P2;SDS_P1;SDS_P2;PMS_P1;PMS_P2;Temp;Humidity;BMP_temperature;BMP_pressure;BME280_temperature;BME280_humidity;BME280_pressure;Samples;Min_cycle;Max_cycle;Signal;HPM_P1;HPM_P2
2022/03/01 00:01:44;;;;;;;44.47;22.70;;;;;;;;;;5098729;28;20028;-68
2022/03/01 00:04:09;;;;;;;52.40;27.95;;;;;;;;;;5107618;28;20031;-68
2022/03/01 00:06:35;;;;;;;60.55;33.28;;;;;;;;;;5106932;28;20073;-68
2022/03/01 00:09:00;;;;;;;47.63;25.38;;;;;;;;;;5103950;28;20410;-67
2022/03/01 00:11:26;;;;;;;38.35;23.00;;;;;;;;;;5098119;28;20351;-67
2022/03/01 00:13:51;;;;;;;40.17;22.27;;;;;;;;;;5102228;28;20143;-67
2022/03/01 00:16:17;;;;;;;33.05;21.80;;;;;;;;;;5097723;28;20026;-73
2022/03/01 00:18:43;;;;;;;26.02;16.38;;;;;;;;;;5097095;28;20049;-74
2022/03/01 00:21:08;;;;;;;29.73;18.02;;;;;;;;;;5099399;28;20028;-67
2022/03/01 00:23:33;;;;;;;34.45;21.80;;;;;;;;;;5106112;28;20024;-67
2022/03/01 00:25:59;;;;;;;45.50;26.70;;;;;;;;;;5106306;28;20168;-69
2022/03/01 00:28:24;;;;;;;44.08;22.80;;;;;;;;;;5102161;28;20077;-66
2022/03/01 00:30:50;;;;;;;42.22;24.40;;;;;;;;;;5101318;28;20043;-68
2022/03/01 00:33:15;;;;;;;44.20;23.80;;;;;;;;;;5106272;28;20016;-66
2022/03/01 00:35:41;;;;;;;34.35;20.40;;;;;;;;;;5106221;28;20426;-71
2022/03/01 00:38:06;;;;;;;24.80;17.33;;;;;;;;;;5106012;28;20019;-67
2022/03/01 00:40:31;;;;;;;27.23;18.05;;;;;;;;;;5100538;28;20031;-76
2022/03/01 00:42:57;;;;;;;27.50;16.13;;;;;;;;;;5099089;28;20493;-71
2022/03/01 00:45:22;;;;;;;32.28;19.75;;;;;;;;;;5102107;28;20055;-69
2022/03/01 00:47:47;;;;;;;35.33;19.25;;;;;;;;;;5105637;28;20030;-67
2022/03/01 00:50:13;;;;;;;49.42;25.83;;;;;;;;;;5098936;28;20027;-68
2022/03/01 00:52:38;;;;;;;46.33;22.67;;;;;;;;;;5103675;28;20024;-67
2022/03/01 00:55:04;;;;;;;33.47;17.02;;;;;;;;;;5105031;28;20024;-68
2022/03/01 00:57:29;;;;;;;42.42;20.85;;;;;;;;;;5104441;28;20030;-67
2022/03/01 00:59:55;;;;;;;54.47;29.83;;;;;;;;;;5098820;28;20024;-71
2022/03/01 01:02:20;;;;;;;40.70;22.67;;;;;;;;;;5080325;28;20039;-66
2022/03/01 01:04:45;;;;;;;31.48;21.52;;;;;;;;;;5082386;28;20024;-72
2022/03/01 01:07:11;;;;;;;31.17;19.08;;;;;;;;;;5087894;28;20158;-70
2022/03/01 01:09:36;;;;;;;31.52;18.52;;;;;;;;;;5112283;27;20023;-68
2022/03/01 01:12:01;;;;;;;28.95;19.30;;;;;;;;;;5105545;27;20334;-74
2022/03/01 01:14:27;;;;;;;29.92;19.70;;;;;;;;;;5104922;27;20033;-68
2022/03/01 01:16:52;;;;;;;24.80;16.58;;;;;;;;;;5126812;27;20055;-67
2022/03/01 01:19:17;;;;;;;27.65;18.70;;;;;;;;;;5119994;27;20403;-68
2022/03/01 01:24:27;;;;;;;30.50;19.70;;;;;;;;;;5123611;27;20088;-66
2022/03/01 01:26:52;;;;;;;23.70;16.35;;;;;;;;;;5121410;27;20031;-67
2022/03/01 01:29:18;;;;;;;24.75;16.80;;;;;;;;;;5126725;27;20997;-70
2022/03/01 01:31:43;;;;;;;22.98;15.07;;;;;;;;;;5126227;27;20490;-70
2022/03/01 01:34:08;;;;;;;26.10;17.38;;;;;;;;;;5119035;27;20031;-73
2022/03/01 01:36:34;;;;;;;19.75;12.73;;;;;;;;;;5103501;28;20028;-69
2022/03/01 01:39:00;;;;;;;22.73;15.15;;;;;;;;;;5096581;28;20059;-67
2022/03/01 01:41:26;;;;;;;21.45;13.70;;;;;;;;;;5104166;28;20028;-67
2022/03/01 01:43:51;;;;;;;23.33;16.95;;;;;;;;;;5105853;28;20076;-70
2022/03/01 01:46:16;;;;;;;28.83;18.27;;;;;;;;;;5105219;28;20023;-72
2022/03/01 01:48:42;;;;;;;29.10;18.02;;;;;;;;;;5105390;28;20439;-68
2022/03/01 01:51:07;;;;;;;26.67;17.38;;;;;;;;;;5105752;28;20350;-68
2022/03/01 01:53:33;;;;;;;31.20;19.65;;;;;;;;;;5104803;28;20472;-69
2022/03/01 01:55:58;;;;;;;27.83;17.25;;;;;;;;;;5105198;28;20037;-67
2022/03/01 01:58:23;;;;;;;40.17;24.40;;;;;;;;;;5104740;28;20047;-68
2022/03/01 02:00:49;;;;;;;25.95;17.42;;;;;;;;;;5104538;28;20071;-68
2022/03/01 02:03:15;;;;;;;28.55;18.80;;;;;;;;;;5105346;28;20023;-68
2022/03/01 02:05:40;;;;;;;28.75;17.52;;;;;;;;;;5105321;28;20027;-67
2022/03/01 02:08:06;;;;;;;22.25;15.73;;;;;;;;;;5106298;28;20016;-69
2022/03/01 02:10:31;;;;;;;23.02;15.43;;;;;;;;;;5109058;28;20161;-73
2022/03/01 02:12:57;;;;;;;28.25;16.58;;;;;;;;;;5109015;28;20048;-71
2022/03/01 02:15:23;;;;;;;24.15;17.27;;;;;;;;;;5109555;28;20023;-69
2022/03/01 02:17:48;;;;;;;26.50;17.02;;;;;;;;;;5108802;28;20020;-68
2022/03/01 02:20:14;;;;;;;26.02;17.33;;;;;;;;;;5107429;27;20501;-67
2022/03/01 02:22:39;;;;;;;25.88;17.27;;;;;;;;;;5114704;27;20027;-68
2022/03/01 02:25:05;;;;;;;20.80;14.57;;;;;;;;;;5121012;27;20483;-67
2022/03/01 02:27:31;;;;;;;22.95;15.77;;;;;;;;;;5120431;27;20445;-70
2022/03/01 02:29:56;;;;;;;19.20;13.68;;;;;;;;;;5123266;27;20027;-67
2022/03/01 02:32:21;;;;;;;19.55;12.40;;;;;;;;;;5121040;27;20027;-73
2022/03/01 02:34:48;;;;;;;20.27;13.32;;;;;;;;;;5119553;27;20027;-67
2022/03/01 02:37:14;;;;;;;17.08;13.13;;;;;;;;;;5120264;27;20418;-67
2022/03/01 02:39:39;;;;;;;16.70;12.77;;;;;;;;;;5127678;27;20052;-68
2022/03/01 02:42:04;;;;;;;19.05;13.75;;;;;;;;;;5129696;27;20023;-72
2022/03/01 02:44:30;;;;;;;18.23;12.80;;;;;;;;;;5129514;27;20035;-68
2022/03/01 02:46:55;;;;;;;18.65;13.90;;;;;;;;;;5129646;27;20031;-73
2022/03/01 02:49:21;;;;;;;17.42;12.25;;;;;;;;;;5129272;27;20031;-69
2022/03/01 02:51:46;;;;;;;21.58;13.90;;;;;;;;;;5129908;27;20035;-66
2022/03/01 02:54:11;;;;;;;20.30;14.43;;;;;;;;;;5130049;27;20023;-68
2022/03/01 02:56:38;;;;;;;15.93;11.68;;;;;;;;;;5128951;27;20029;-65
2022/03/01 02:59:03;;;;;;;16.25;12.02;;;;;;;;;;5129421;27;20426;-67
2022/03/01 03:01:29;;;;;;;17.13;12.80;;;;;;;;;;5107103;28;20019;-66
2022/03/01 03:03:55;;;;;;;17.67;13.07;;;;;;;;;;5108192;28;20104;-73
2022/03/01 03:06:20;;;;;;;16.52;11.48;;;;;;;;;;5108839;28;20528;-66
2022/03/01 03:08:46;;;;;;;16.98;12.40;;;;;;;;;;5108375;28;21191;-70
2022/03/01 03:11:11;;;;;;;19.05;12.98;;;;;;;;;;5108014;28;20031;-67
2022/03/01 03:13:37;;;;;;;18.85;12.82;;;;;;;;;;5108039;28;20060;-66
2022/03/01 03:16:03;;;;;;;17.85;13.13;;;;;;;;;;5101858;28;20024;-68
2022/03/01 03:18:29;;;;;;;19.27;12.27;;;;;;;;;;5088820;28;20019;-68
2022/03/01 03:20:54;;;;;;;17.58;12.35;;;;;;;;;;5107553;28;20077;-73
2022/03/01 03:23:20;;;;;;;17.90;12.43;;;;;;;;;;5107711;28;20039;-69
2022/03/01 03:25:45;;;;;;;17.13;12.23;;;;;;;;;;5107575;28;20038;-74
2022/03/01 03:28:11;;;;;;;22.60;15.63;;;;;;;;;;5107502;28;20494;-67
2022/03/01 03:30:36;;;;;;;18.98;13.27;;;;;;;;;;5107547;28;20035;-66
2022/03/01 03:33:01;;;;;;;22.48;15.30;;;;;;;;;;5108080;28;20032;-66
2022/03/01 03:35:27;;;;;;;18.90;13.95;;;;;;;;;;5107023;28;20046;-66
2022/03/01 03:37:52;;;;;;;19.50;13.93;;;;;;;;;;5087899;28;20104;-65
2022/03/01 03:40:17;;;;;;;17.08;11.00;;;;;;;;;;5079345;28;20024;-67
2022/03/01 03:42:44;;;;;;;17.98;13.10;;;;;;;;;;5087374;28;20035;-67
2022/03/01 03:45:10;;;;;;;15.20;11.88;;;;;;;;;;5087224;28;20027;-72
2022/03/01 03:47:35;;;;;;;16.73;11.82;;;;;;;;;;5087313;28;20019;-67
2022/03/01 03:50:01;;;;;;;17.42;12.85;;;;;;;;;;5086912;28;20024;-66
2022/03/01 03:52:26;;;;;;;20.95;17.42;;;;;;;;;;5086473;28;20031;-68
2022/03/01 03:54:51;;;;;;;19.52;13.88;;;;;;;;;;5087439;28;20320;-66
2022/03/01 03:57:17;;;;;;;32.50;26.17;;;;;;;;;;5086704;28;20089;-68
2022/03/01 03:59:42;;;;;;;23.67;16.88;;;;;;;;;;5091582;28;20015;-74
2022/03/01 04:02:08;;;;;;;22.70;17.20;;;;;;;;;;5089222;28;20426;-71
2022/03/01 04:04:33;;;;;;;23.35;16.75;;;;;;;;;;5099991;28;20107;-69
2022/03/01 04:06:59;;;;;;;26.38;19.60;;;;;;;;;;5106361;28;20027;-70
2022/03/01 04:09:24;;;;;;;31.98;21.35;;;;;;;;;;5107174;28;20039;-67
2022/03/01 04:11:49;;;;;;;28.52;19.40;;;;;;;;;;5106950;28;20131;-69
2022/03/01 04:14:17;;;;;;;25.48;17.88;;;;;;;;;;5106314;28;20331;-67
2022/03/01 04:16:42;;;;;;;26.10;18.13;;;;;;;;;;5106869;28;20382;-68
2022/03/01 04:19:09;;;;;;;38.60;24.88;;;;;;;;;;5106478;28;20065;-68
2022/03/01 04:21:34;;;;;;;44.88;31.13;;;;;;;;;;5107390;28;20024;-68
2022/03/01 04:24:00;;;;;;;49.50;30.88;;;;;;;;;;5103911;28;20057;-67
2022/03/01 04:26:25;;;;;;;43.65;28.42;;;;;;;;;;5098138;28;20050;-68
2022/03/01 04:28:51;;;;;;;64.90;35.45;;;;;;;;;;5103159;28;20035;-66
2022/03/01 04:31:16;;;;;;;56.20;33.90;;;;;;;;;;5106246;28;20062;-68
2022/03/01 04:33:41;;;;;;;54.83;33.22;;;;;;;;;;5106364;28;20030;-70
2022/03/01 04:36:07;;;;;;;47.05;29.08;;;;;;;;;;5105726;28;20031;-68
2022/03/01 04:38:33;;;;;;;42.05;25.00;;;;;;;;;;5099781;28;20030;-70
2022/03/01 04:40:58;;;;;;;48.10;28.42;;;;;;;;;;5106367;28;20086;-74
2022/03/01 04:43:24;;;;;;;63.92;35.67;;;;;;;;;;5106567;28;20048;-68
2022/03/01 04:45:49;;;;;;;54.88;32.55;;;;;;;;;;5106677;28;20350;-69
2022/03/01 04:48:15;;;;;;;41.85;26.70;;;;;;;;;;5097604;28;20074;-69
2022/03/01 04:50:40;;;;;;;35.97;23.35;;;;;;;;;;5097057;28;20023;-65
2022/03/01 04:53:06;;;;;;;33.72;22.17;;;;;;;;;;5099946;28;20103;-66
2022/03/01 04:55:32;;;;;;;44.70;26.58;;;;;;;;;;5079115;28;20015;-66
2022/03/01 04:57:57;;;;;;;82.70;40.65;;;;;;;;;;5102439;28;21217;-72
2022/03/01 05:00:23;;;;;;;63.67;32.88;;;;;;;;;;5095337;28;20051;-70
2022/03/01 05:02:48;;;;;;;41.65;23.60;;;;;;;;;;5085755;28;20450;-67
2022/03/01 05:05:14;;;;;;;35.53;21.00;;;;;;;;;;5086223;28;20121;-65
2022/03/01 05:07:40;;;;;;;31.80;22.83;;;;;;;;;;5086074;28;20032;-68
2022/03/01 05:10:06;;;;;;;103.30;54.25;;;;;;;;;;5086116;28;20055;-72
2022/03/01 05:12:32;;;;;;;56.38;37.85;;;;;;;;;;5077531;28;20425;-69
2022/03/01 05:14:57;;;;;;;52.13;32.67;;;;;;;;;;5075902;28;20036;-73
2022/03/01 05:17:22;;;;;;;53.05;35.45;;;;;;;;;;5082722;28;20050;-69
2022/03/01 05:19:48;;;;;;;48.60;31.52;;;;;;;;;;5085036;28;20024;-66
2022/03/01 05:22:13;;;;;;;59.13;36.92;;;;;;;;;;5085674;28;20032;-67
2022/03/01 05:24:38;;;;;;;51.17;33.28;;;;;;;;;;5084661;28;20016;-66
2022/03/01 05:27:04;;;;;;;57.08;36.05;;;;;;;;;;5082060;28;20415;-67
2022/03/01 05:29:30;;;;;;;62.05;38.80;;;;;;;;;;5103328;28;20611;-65
2022/03/01 05:31:55;;;;;;;90.35;52.72;;;;;;;;;;5080184;28;20459;-70
2022/03/01 05:34:20;;;;;;;152.50;77.28;;;;;;;;;;5088157;28;20099;-69
2022/03/01 05:36:46;;;;;;;92.85;45.50;;;;;;;;;;5093097;28;20024;-67
2022/03/01 05:39:11;;;;;;;184.90;99.32;;;;;;;;;;5092102;28;20042;-74
2022/03/01 05:41:37;;;;;;;252.95;114.20;;;;;;;;;;5098349;28;20459;-70
2022/03/01 05:44:02;;;;;;;84.82;44.90;;;;;;;;;;5093604;28;20036;-67
2022/03/01 05:46:28;;;;;;;104.68;53.40;;;;;;;;;;5097480;28;20646;-71
2022/03/01 05:48:53;;;;;;;115.93;56.90;;;;;;;;;;5088579;28;20032;-69
2022/03/01 05:51:18;;;;;;;65.97;32.67;;;;;;;;;;5092425;28;20494;-68
2022/03/01 05:53:44;;;;;;;94.50;47.80;;;;;;;;;;5097214;28;20418;-67
2022/03/01 05:56:09;;;;;;;61.53;33.97;;;;;;;;;;5092861;28;20108;-72
2022/03/01 05:58:35;;;;;;;40.30;24.60;;;;;;;;;;5096015;28;20108;-68
2022/03/01 06:01:00;;;;;;;119.57;63.60;;;;;;;;;;5096091;28;20461;-74
2022/03/01 06:03:25;;;;;;;345.25;167.15;;;;;;;;;;5084918;28;20408;-69
2022/03/01 06:05:51;;;;;;;209.45;101.78;;;;;;;;;;5086563;28;20024;-68
2022/03/01 06:08:16;;;;;;;221.23;109.15;;;;;;;;;;5086753;28;20389;-70
2022/03/01 06:10:41;;;;;;;58.40;33.22;;;;;;;;;;5088096;28;20401;-70
2022/03/01 06:13:07;;;;;;;45.78;29.55;;;;;;;;;;5095032;28;20071;-69
2022/03/01 06:15:32;;;;;;;49.97;32.60;;;;;;;;;;5096182;28;20081;-70
2022/03/01 06:17:58;;;;;;;51.03;33.90;;;;;;;;;;5097691;28;20434;-70
2022/03/01 06:20:23;;;;;;;78.75;44.47;;;;;;;;;;5089607;28;20077;-68
2022/03/01 06:22:48;;;;;;;69.97;38.70;;;;;;;;;;5084703;28;20028;-68
2022/03/01 06:25:14;;;;;;;48.38;30.35;;;;;;;;;;5096800;28;20040;-71
2022/03/01 06:27:40;;;;;;;40.22;25.75;;;;;;;;;;5099337;28;20791;-72
2022/03/01 06:30:06;;;;;;;33.40;20.50;;;;;;;;;;5090606;28;20111;-71
2022/03/01 06:32:31;;;;;;;41.55;28.00;;;;;;;;;;5086711;28;20028;-72
2022/03/01 06:34:57;;;;;;;40.60;27.90;;;;;;;;;;5084916;28;20023;-72
2022/03/01 06:37:22;;;;;;;44.88;30.23;;;;;;;;;;5086977;28;20047;-77
2022/03/01 06:39:50;;;;;;;42.55;29.35;;;;;;;;;;5097774;28;21184;-73
2022/03/01 06:42:16;;;;;;;53.38;35.72;;;;;;;;;;5084872;28;20023;-74
2022/03/01 06:44:41;;;;;;;71.72;45.88;;;;;;;;;;5084561;28;20028;-72
2022/03/01 06:47:07;;;;;;;91.40;51.97;;;;;;;;;;5084631;28;20039;-66
2022/03/01 06:49:32;;;;;;;74.10;40.30;;;;;;;;;;5086291;28;20118;-69
2022/03/01 06:51:58;;;;;;;58.40;35.28;;;;;;;;;;5085378;28;20122;-75
2022/03/01 06:54:23;;;;;;;63.45;37.47;;;;;;;;;;5097814;27;20070;-73
2022/03/01 06:56:48;;;;;;;119.70;68.75;;;;;;;;;;5102142;28;20055;-74
2022/03/01 06:59:14;;;;;;;107.45;58.65;;;;;;;;;;5101405;28;20032;-72
2022/03/01 07:01:39;;;;;;;48.13;30.73;;;;;;;;;;5101386;28;20023;-75
2022/03/01 07:04:05;;;;;;;46.50;28.05;;;;;;;;;;5102172;28;20031;-73
2022/03/01 07:06:30;;;;;;;53.90;33.33;;;;;;;;;;5100272;28;20062;-74
2022/03/01 07:08:56;;;;;;;90.78;52.72;;;;;;;;;;5101136;28;20107;-73
2022/03/01 07:11:22;;;;;;;115.00;59.65;;;;;;;;;;5098375;28;20031;-73
2022/03/01 07:13:47;;;;;;;116.75;52.33;;;;;;;;;;5099233;28;20032;-73
2022/03/01 07:16:12;;;;;;;74.57;34.05;;;;;;;;;;5101099;28;20457;-72
2022/03/01 07:18:38;;;;;;;85.82;37.08;;;;;;;;;;5101013;28;20362;-73
2022/03/01 07:21:03;;;;;;;85.38;34.45;;;;;;;;;;5102766;28;20039;-76
2022/03/01 07:23:29;;;;;;;67.55;31.50;;;;;;;;;;5102160;28;20027;-73
2022/03/01 07:25:55;;;;;;;84.40;34.58;;;;;;;;;;5100533;28;20038;-77
2022/03/01 07:28:21;;;;;;;48.20;22.33;;;;;;;;;;5101242;28;20350;-73
2022/03/01 07:30:46;;;;;;;158.52;66.78;;;;;;;;;;5101758;28;20031;-74
2022/03/01 07:33:12;;;;;;;63.60;29.23;;;;;;;;;;5101900;28;20020;-73
2022/03/01 07:35:37;;;;;;;78.28;33.53;;;;;;;;;;5100137;28;20084;-76
2022/03/01 07:38:03;;;;;;;65.38;31.20;;;;;;;;;;5099111;28;20518;-76
2022/03/01 07:40:28;;;;;;;42.83;19.85;;;;;;;;;;5101122;28;20027;-72
2022/03/01 07:42:54;;;;;;;48.35;23.25;;;;;;;;;;5100931;28;20027;-75
2022/03/01 07:45:20;;;;;;;25.80;13.40;;;;;;;;;;5101387;28;20031;-73
2022/03/01 07:47:45;;;;;;;19.90;12.70;;;;;;;;;;5102952;28;20035;-72
2022/03/01 07:50:11;;;;;;;19.00;11.70;;;;;;;;;;5100182;28;20034;-75
2022/03/01 07:52:37;;;;;;;35.78;17.85;;;;;;;;;;5101152;28;20023;-72
2022/03/01 07:55:03;;;;;;;23.05;13.88;;;;;;;;;;5099584;28;20023;-72
2022/03/01 07:57:28;;;;;;;30.20;16.48;;;;;;;;;;5101151;28;20024;-75
2022/03/01 07:59:53;;;;;;;14.00;10.50;;;;;;;;;;5100112;28;20480;-76
2022/03/01 08:02:19;;;;;;;22.60;12.05;;;;;;;;;;5100522;28;20031;-73
2022/03/01 08:04:44;;;;;;;12.40;9.93;;;;;;;;;;5102874;28;20994;-73
2022/03/01 08:07:10;;;;;;;16.55;10.27;;;;;;;;;;5102223;28;20031;-74
2022/03/01 08:09:36;;;;;;;61.15;28.67;;;;;;;;;;5101880;28;20034;-74
2022/03/01 08:12:02;;;;;;;31.52;18.20;;;;;;;;;;5101449;28;20055;-77
2022/03/01 08:14:30;;;;;;;71.10;30.92;;;;;;;;;;5101445;28;20032;-74
2022/03/01 08:16:55;;;;;;;18.35;12.10;;;;;;;;;;5101939;28;20544;-74
2022/03/01 08:19:20;;;;;;;71.82;30.73;;;;;;;;;;5099663;28;20024;-75
2022/03/01 08:21:46;;;;;;;27.38;14.43;;;;;;;;;;5099910;28;20339;-73
2022/03/01 08:24:11;;;;;;;20.48;12.73;;;;;;;;;;5100508;28;20053;-77
2022/03/01 08:26:38;;;;;;;27.77;17.25;;;;;;;;;;5099699;28;20084;-74
2022/03/01 08:29:03;;;;;;;27.63;17.98;;;;;;;;;;5099588;28;20127;-77
2022/03/01 08:31:28;;;;;;;80.65;34.45;;;;;;;;;;5098041;28;20111;-74
2022/03/01 08:33:54;;;;;;;22.48;12.63;;;;;;;;;;5099651;28;20039;-73
2022/03/01 08:36:19;;;;;;;26.58;15.95;;;;;;;;;;5101562;28;20024;-73
2022/03/01 08:38:45;;;;;;;25.38;14.45;;;;;;;;;;5101606;28;20030;-73
2022/03/01 08:41:10;;;;;;;19.15;12.95;;;;;;;;;;5100172;28;20891;-75
2022/03/01 08:43:35;;;;;;;20.58;13.32;;;;;;;;;;5100073;28;20027;-73
2022/03/01 08:46:01;;;;;;;28.23;15.35;;;;;;;;;;5098943;28;20099;-73
2022/03/01 08:48:26;;;;;;;21.58;13.70;;;;;;;;;;5085200;28;20393;-75
2022/03/01 08:50:52;;;;;;;24.20;12.60;;;;;;;;;;5096978;28;20031;-74
2022/03/01 08:53:19;;;;;;;18.73;11.93;;;;;;;;;;5099841;28;20028;-77
2022/03/01 08:55:44;;;;;;;13.40;9.98;;;;;;;;;;5102209;28;20023;-73
2022/03/01 08:58:10;;;;;;;14.50;10.30;;;;;;;;;;5100844;28;20031;-74
2022/03/01 09:00:35;;;;;;;24.55;14.15;;;;;;;;;;5099080;28;20035;-76
2022/03/01 09:03:01;;;;;;;17.00;10.85;;;;;;;;;;5099763;28;20069;-73
2022/03/01 09:05:26;;;;;;;22.00;12.27;;;;;;;;;;5089656;27;20430;-77
2022/03/01 09:07:51;;;;;;;17.95;11.35;;;;;;;;;;5086964;27;20038;-72
2022/03/01 09:10:22;;;;;;;44.97;20.30;;;;;;;;;;5083418;28;20439;-69
2022/03/01 09:12:49;;;;;;;143.95;47.25;;;;;;;;;;5082629;28;20512;-67
2022/03/01 09:15:14;;;;;;;73.50;23.85;;;;;;;;;;5082351;27;20027;-69
2022/03/01 09:17:39;;;;;;;39.33;17.92;;;;;;;;;;5090733;28;20450;-68
2022/03/01 09:20:05;;;;;;;38.38;17.88;;;;;;;;;;5084807;28;20027;-69
2022/03/01 09:22:30;;;;;;;39.85;20.50;;;;;;;;;;5084684;28;20031;-69
2022/03/01 09:24:56;;;;;;;267.48;104.07;;;;;;;;;;5090752;28;20452;-71
2022/03/01 09:27:22;;;;;;;78.47;34.78;;;;;;;;;;5093077;28;20389;-71
2022/03/01 09:29:47;;;;;;;37.38;19.63;;;;;;;;;;5082161;28;20134;-72
2022/03/01 09:32:14;;;;;;;59.83;31.77;;;;;;;;;;5092262;28;20501;-71
2022/03/01 09:34:39;;;;;;;17.52;11.93;;;;;;;;;;5090373;28;20118;-72
2022/03/01 09:37:05;;;;;;;15.13;10.55;;;;;;;;;;5086582;28;20107;-75
2022/03/01 09:39:30;;;;;;;42.25;25.60;;;;;;;;;;5085419;28;20024;-72
2022/03/01 09:41:55;;;;;;;34.35;22.27;;;;;;;;;;5094918;28;20031;-72
2022/03/01 09:44:21;;;;;;;190.15;78.85;;;;;;;;;;5093884;28;20115;-71
2022/03/01 09:46:47;;;;;;;32.47;16.90;;;;;;;;;;5089236;28;20114;-72
2022/03/01 09:49:13;;;;;;;45.05;25.75;;;;;;;;;;5082546;28;20035;-72
2022/03/01 09:51:39;;;;;;;64.55;36.30;;;;;;;;;;5094201;28;20055;-73
2022/03/01 09:54:04;;;;;;;63.40;39.15;;;;;;;;;;5089404;28;20485;-71
2022/03/01 09:56:30;;;;;;;30.38;19.65;;;;;;;;;;5083747;28;20020;-71
2022/03/01 09:58:57;;;;;;;19.42;13.70;;;;;;;;;;5093012;28;20027;-71
2022/03/01 10:01:23;;;;;;;12.88;10.32;;;;;;;;;;5079545;28;20027;-71
2022/03/01 10:03:51;;;;;;;12.93;8.55;;;;;;;;;;5081305;28;20077;-69
2022/03/01 10:06:17;;;;;;;12.93;10.52;;;;;;;;;;5077961;28;20036;-72
2022/03/01 10:08:43;;;;;;;12.50;8.57;;;;;;;;;;5083348;28;20032;-73
2022/03/01 10:11:08;;;;;;;15.73;10.45;;;;;;;;;;5088912;28;20046;-73
2022/03/01 10:13:35;;;;;;;18.67;13.32;;;;;;;;;;5092712;28;20144;-71
2022/03/01 10:16:16;;;;;;;7.65;6.30;;;;;;;;;;5087704;28;20454;-78
2022/03/01 10:18:43;;;;;;;13.70;6.45;;;;;;;;;;5085520;28;20034;-74
2022/03/01 10:21:10;;;;;;;14.15;9.68;;;;;;;;;;5082888;28;20035;-75
2022/03/01 10:23:36;;;;;;;12.40;10.10;;;;;;;;;;5094780;28;20411;-74
2022/03/01 10:26:16;;;;;;;7.85;6.90;;;;;;;;;;5093439;28;20051;-74
2022/03/01 10:28:43;;;;;;;12.68;9.63;;;;;;;;;;5090095;28;20063;-75
2022/03/01 10:31:19;;;;;;;9.65;6.97;;;;;;;;;;5097300;28;20050;-72
2022/03/01 10:34:02;;;;;;;9.18;7.97;;;;;;;;;;5087289;28;20028;-72
2022/03/01 10:36:29;;;;;;;9.70;7.22;;;;;;;;;;5081261;28;20043;-73
2022/03/01 10:38:56;;;;;;;15.88;13.00;;;;;;;;;;5096520;28;20544;-71
2022/03/01 10:41:28;;;;;;;8.30;6.85;;;;;;;;;;5098332;28;20451;-74
2022/03/01 10:43:56;;;;;;;9.65;6.80;;;;;;;;;;5093219;28;20023;-78
2022/03/01 10:46:21;;;;;;;9.30;7.30;;;;;;;;;;5097197;28;20076;-72
2022/03/01 10:48:46;;;;;;;7.72;5.97;;;;;;;;;;5094086;28;20450;-76
2022/03/01 10:51:13;;;;;;;8.35;7.13;;;;;;;;;;5096493;28;20031;-79
2022/03/01 10:53:42;;;;;;;8.05;6.97;;;;;;;;;;5091583;28;20098;-75
2022/03/01 10:56:09;;;;;;;5.57;5.03;;;;;;;;;;5085572;28;20122;-76
2022/03/01 10:58:38;;;;;;;15.73;10.77;;;;;;;;;;5089674;28;20032;-78
2022/03/01 11:01:06;;;;;;;9.00;7.57;;;;;;;;;;5090747;28;20458;-76
2022/03/01 11:03:31;;;;;;;8.38;6.93;;;;;;;;;;5093624;28;20019;-70
2022/03/01 11:05:57;;;;;;;9.68;7.05;;;;;;;;;;5094953;28;20125;-71
2022/03/01 11:08:25;;;;;;;6.93;4.95;;;;;;;;;;5091780;28;20054;-73
2022/03/01 11:10:51;;;;;;;14.20;9.77;;;;;;;;;;5094975;28;20439;-72
2022/03/01 11:13:19;;;;;;;11.13;7.28;;;;;;;;;;5087944;28;20494;-72
2022/03/01 11:15:44;;;;;;;5.43;4.90;;;;;;;;;;5086132;28;20092;-75
2022/03/01 11:18:09;;;;;;;23.65;16.15;;;;;;;;;;5088646;28;20020;-72
2022/03/01 11:20:36;;;;;;;16.02;9.73;;;;;;;;;;5076369;28;20100;-71
2022/03/01 11:23:09;;;;;;;6.97;4.72;;;;;;;;;;5095714;28;20610;-72
2022/03/01 11:25:39;;;;;;;8.45;6.43;;;;;;;;;;5087843;28;20065;-74
2022/03/01 11:28:05;;;;;;;;;;;;;;;;;;5082929;28;20897;-71
2022/03/01 11:30:35;;;;;;;12.30;9.70;;;;;;;;;;5081801;28;19912;-75
2022/03/01 11:33:00;;;;;;;10.23;8.55;;;;;;;;;;5102342;28;20033;-74
2022/03/01 11:35:28;;;;;;;5.53;4.82;;;;;;;;;;5075159;28;20024;-74
2022/03/01 11:38:02;;;;;;;6.40;5.70;;;;;;;;;;5090741;28;20028;-73
2022/03/01 11:40:30;;;;;;;5.72;4.53;;;;;;;;;;5092856;28;20024;-71
2022/03/01 11:43:05;;;;;;;11.05;7.88;;;;;;;;;;5103108;28;20055;-72
2022/03/01 11:45:34;;;;;;;9.05;7.50;;;;;;;;;;5099462;28;20559;-73
2022/03/01 11:48:13;;;;;;;5.72;5.10;;;;;;;;;;5097594;28;20019;-71
2022/03/01 11:50:54;;;;;;;5.03;4.50;;;;;;;;;;5083439;28;20035;-72
2022/03/01 11:53:19;;;;;;;5.45;4.38;;;;;;;;;;5098140;28;20370;-74
2022/03/01 11:55:49;;;;;;;5.00;3.88;;;;;;;;;;5100379;28;20027;-73
2022/03/01 11:58:15;;;;;;;4.80;4.22;;;;;;;;;;5098612;28;20031;-75
2022/03/01 12:00:41;;;;;;;6.80;4.97;;;;;;;;;;5075683;28;20024;-78
2022/03/01 12:03:12;;;;;;;4.55;4.15;;;;;;;;;;5089803;28;20138;-74
2022/03/01 12:05:38;;;;;;;9.80;6.15;;;;;;;;;;5086737;28;21833;-72
2022/03/01 12:08:07;;;;;;;5.38;4.40;;;;;;;;;;5095653;28;20026;-73
2022/03/01 12:10:33;;;;;;;;;;;;;;;;;;5098453;28;20027;-69
2022/03/01 12:12:58;;;;;;;5.03;4.47;;;;;;;;;;5098554;28;19923;-76
2022/03/01 12:15:30;;;;;;;10.10;5.53;;;;;;;;;;5088743;28;20590;-79
2022/03/01 12:17:57;;;;;;;9.70;6.07;;;;;;;;;;5088660;28;20039;-72
2022/03/01 12:20:23;;;;;;;5.35;4.22;;;;;;;;;;5100547;28;20026;-74
2022/03/01 12:22:54;;;;;;;12.10;8.88;;;;;;;;;;5100321;28;20027;-73
2022/03/01 12:25:20;;;;;;;11.98;8.98;;;;;;;;;;5081634;28;20169;-72
2022/03/01 12:27:47;;;;;;;7.63;5.95;;;;;;;;;;5098849;28;20428;-71
2022/03/01 12:30:13;;;;;;;7.32;5.15;;;;;;;;;;5091483;28;20110;-74
2022/03/01 12:32:39;;;;;;;5.28;4.00;;;;;;;;;;5089363;28;20176;-71
2022/03/01 12:35:05;;;;;;;5.50;3.63;;;;;;;;;;5099236;27;20435;-73
2022/03/01 12:37:30;;;;;;;6.57;4.68;;;;;;;;;;5090070;27;20031;-74
2022/03/01 12:39:56;;;;;;;5.38;4.88;;;;;;;;;;5090097;28;20076;-72
2022/03/01 12:42:27;;;;;;;6.13;4.38;;;;;;;;;;5094001;28;20103;-71
2022/03/01 12:44:53;;;;;;;9.80;6.45;;;;;;;;;;5086376;28;20031;-74
2022/03/01 12:47:18;;;;;;;12.52;8.07;;;;;;;;;;5090853;28;20024;-71
2022/03/01 12:49:44;;;;;;;5.20;4.40;;;;;;;;;;5070404;28;20039;-74
2022/03/01 12:52:16;;;;;;;6.15;4.53;;;;;;;;;;5090204;28;20518;-74
2022/03/01 12:54:44;;;;;;;7.55;5.20;;;;;;;;;;5085658;28;20059;-77
2022/03/01 12:57:11;;;;;;;16.27;9.65;;;;;;;;;;5085016;28;20028;-75
2022/03/01 12:59:36;;;;;;;15.65;10.45;;;;;;;;;;5086972;28;20178;-73
2022/03/01 13:02:05;;;;;;;18.77;11.40;;;;;;;;;;5087934;28;20126;-72
2022/03/01 13:04:32;;;;;;;14.25;10.35;;;;;;;;;;5088016;28;20110;-78
2022/03/01 13:06:58;;;;;;;13.57;9.48;;;;;;;;;;5087654;28;20106;-78
2022/03/01 13:09:23;;;;;;;13.63;8.98;;;;;;;;;;5085993;28;20035;-78
2022/03/01 13:11:49;;;;;;;23.98;11.45;;;;;;;;;;5085973;28;20367;-74
2022/03/01 13:14:17;;;;;;;8.02;5.47;;;;;;;;;;5087870;28;20059;-75
2022/03/01 13:16:46;;;;;;;11.05;6.57;;;;;;;;;;5084319;28;20130;-74
2022/03/01 13:19:16;;;;;;;11.65;7.63;;;;;;;;;;5086371;28;20354;-74
2022/03/01 13:21:46;;;;;;;11.00;6.68;;;;;;;;;;5086645;28;20119;-74
2022/03/01 13:24:12;;;;;;;27.17;19.35;;;;;;;;;;5086955;28;20310;-74
2022/03/01 13:26:37;;;;;;;8.23;6.38;;;;;;;;;;5086100;28;20755;-73
2022/03/01 13:29:11;;;;;;;8.65;6.30;;;;;;;;;;5090234;28;20024;-74
2022/03/01 13:31:36;;;;;;;8.40;5.50;;;;;;;;;;5100162;28;20032;-78
2022/03/01 13:34:02;;;;;;;22.95;11.25;;;;;;;;;;5098524;28;20543;-74
2022/03/01 13:36:28;;;;;;;12.45;7.05;;;;;;;;;;5078921;28;20027;-80
2022/03/01 13:39:03;;;;;;;15.80;9.35;;;;;;;;;;5093338;28;20084;-76
2022/03/01 13:41:32;;;;;;;12.38;8.73;;;;;;;;;;5085498;28;20195;-76
2022/03/01 13:44:22;;;;;;;29.45;13.48;;;;;;;;;;5099880;28;20023;-74
2022/03/01 13:47:01;;;;;;;13.38;7.70;;;;;;;;;;5099468;28;20056;-77
2022/03/01 13:49:30;;;;;;;12.07;8.02;;;;;;;;;;5096937;28;20055;-73
2022/03/01 13:52:22;;;;;;;20.92;12.98;;;;;;;;;;5098159;28;20027;-75
2022/03/01 13:55:01;;;;;;;17.58;8.65;;;;;;;;;;5095184;28;20401;-76
2022/03/01 13:57:34;;;;;;;22.35;13.10;;;;;;;;;;5099610;28;20020;-74
2022/03/01 14:00:00;;;;;;;30.38;17.33;;;;;;;;;;5097295;28;20036;-74
2022/03/01 14:02:25;;;;;;;37.67;20.20;;;;;;;;;;5098909;28;20362;-74
2022/03/01 14:04:58;;;;;;;50.95;31.63;;;;;;;;;;5100878;28;20449;-74
2022/03/01 14:07:24;;;;;;;85.93;44.42;;;;;;;;;;5103186;28;20055;-73
2022/03/01 14:09:53;;;;;;;33.38;18.65;;;;;;;;;;5102922;28;20032;-77
2022/03/01 14:12:18;;;;;;;19.50;13.05;;;;;;;;;;5101124;28;20048;-75
2022/03/01 14:14:45;;;;;;;10.32;6.40;;;;;;;;;;5103648;28;20406;-74
2022/03/01 14:17:21;;;;;;;17.60;11.05;;;;;;;;;;5102554;27;20051;-77
2022/03/01 14:19:53;;;;;;;22.52;12.25;;;;;;;;;;5100469;27;20031;-72